createdAt,value
2016-06-14T00:00:58.354Z,0
2016-06-14T00:04:01.378Z,0
2016-06-14T00:07:14.825Z,0
2016-06-14T00:10:28.506Z,0
2016-06-14T00:13:41.609Z,0
2016-06-14T00:17:01.528Z,0
2016-06-14T00:20:04.427Z,0
2016-06-14T00:23:18.155Z,0
2016-06-14T00:26:32.024Z,0
2016-06-14T00:29:45.690Z,0
2016-06-14T00:32:59.592Z,0
2016-06-14T00:36:13.633Z,0
2016-06-14T00:39:27.673Z,0
2016-06-14T00:42:41.463Z,0
2016-06-14T00:46:01.461Z,0
2016-06-14T00:49:04.563Z,0
2016-06-14T00:52:18.463Z,0
2016-06-14T00:55:32.441Z,0
2016-06-14T00:58:52.418Z,0
2016-06-14T01:02:01.525Z,0
2016-06-14T01:05:04.629Z,0
2016-06-14T01:08:18.637Z,0
2016-06-14T01:11:32.475Z,0
2016-06-14T01:14:52.328Z,0
2016-06-14T01:18:01.528Z,0
2016-06-14T01:21:04.568Z,0
2016-06-14T01:24:18.483Z,0
2016-06-14T01:27:32.524Z,0
2016-06-14T01:30:52.439Z,0
2016-06-14T01:34:01.561Z,0
2016-06-14T01:37:04.507Z,0
2016-06-14T01:40:20.470Z,0
2016-06-14T01:43:31.995Z,0
2016-06-14T01:46:45.973Z,0
2016-06-14T01:49:59.797Z,0
2016-06-14T01:53:13.542Z,0
2016-06-14T01:56:25.504Z,0
2016-06-14T01:59:39.778Z,1
2016-06-14T02:02:59.100Z,0
2016-06-14T02:06:02.144Z,1
2016-06-14T02:09:15.981Z,1
2016-06-14T02:12:29.990Z,1
2016-06-14T02:15:44.030Z,2
2016-06-14T02:18:57.650Z,3
2016-06-14T02:22:11.536Z,5
2016-06-14T02:25:25.468Z,8
2016-06-14T02:28:39.430Z,8
2016-06-14T02:31:59.439Z,14
2016-06-14T02:35:02.530Z,14
2016-06-14T02:38:16.476Z,19
2016-06-14T02:41:30.501Z,22
2016-06-14T02:44:44.527Z,27
2016-06-14T02:47:58.223Z,31
2016-06-14T02:51:12.407Z,37
2016-06-14T02:54:26.135Z,48
2016-06-14T02:57:39.941Z,55
2016-06-14T03:00:59.903Z,70
2016-06-14T03:04:02.838Z,85
2016-06-14T03:07:16.598Z,99
2016-06-14T03:10:30.762Z,119
2016-06-14T03:13:44.928Z,138
2016-06-14T03:16:58.890Z,143
2016-06-14T03:20:12.777Z,207
2016-06-14T03:23:26.708Z,225
2016-06-14T03:26:40.733Z,269
2016-06-14T03:30:00.586Z,314
2016-06-14T03:33:03.599Z,308
2016-06-14T03:36:17.233Z,315
2016-06-14T03:39:31.305Z,352
2016-06-14T03:42:44.797Z,383
2016-06-14T03:45:58.292Z,396
2016-06-14T03:49:11.960Z,327
2016-06-14T03:52:25.688Z,351
2016-06-14T03:55:39.245Z,418
2016-06-14T03:58:59.176Z,442
2016-06-14T04:02:02.606Z,402
2016-06-14T04:05:16.634Z,400
2016-06-14T04:08:30.535Z,467
2016-06-14T04:11:44.512Z,497
2016-06-14T04:14:58.412Z,480
2016-06-14T04:18:12.908Z,395
2016-06-14T04:21:27.433Z,436
2016-06-14T04:24:41.818Z,503
2016-06-14T04:28:01.796Z,625
2016-06-14T04:31:05.430Z,689
2016-06-14T04:34:19.802Z,687
2016-06-14T04:37:33.873Z,872
2016-06-14T04:40:54.023Z,749
2016-06-14T04:43:57.204Z,620
2016-06-14T04:47:11.014Z,550
2016-06-14T04:50:24.664Z,458
2016-06-14T04:53:38.845Z,466
2016-06-14T04:56:58.791Z,506
2016-06-14T05:00:02.066Z,663
2016-06-14T05:03:16.126Z,734
2016-06-14T05:06:30.041Z,641
2016-06-14T05:09:44.284Z,680
2016-06-14T05:12:57.779Z,910
2016-06-14T05:16:11.619Z,1005
2016-06-14T05:19:25.503Z,910
2016-06-14T05:22:39.074Z,1014
2016-06-14T05:25:58.975Z,1263
2016-06-14T05:29:02.234Z,1467
2016-06-14T05:32:16.058Z,1534
2016-06-14T05:35:29.692Z,1558
2016-06-14T05:38:43.312Z,1318
2016-06-14T05:41:57.008Z,1378
2016-06-14T05:45:11.048Z,1470
2016-06-14T05:48:24.967Z,1252
2016-06-14T05:51:38.649Z,1332
2016-06-14T05:54:58.297Z,1334
2016-06-14T05:58:01.432Z,1271
2016-06-14T06:01:14.988Z,1004
2016-06-14T06:04:28.720Z,875
2016-06-14T06:07:42.651Z,992
2016-06-14T06:10:59.332Z,1094
2016-06-14T06:14:02.091Z,1208
2016-06-14T06:17:15.522Z,1609
2016-06-14T06:20:29.346Z,1748
2016-06-14T06:23:43.028Z,1636
2016-06-14T06:27:00.302Z,1425
2016-06-14T06:30:03.421Z,1084
2016-06-14T06:33:17.571Z,1094
2016-06-14T06:36:31.287Z,1296
2016-06-14T06:39:45.061Z,1146
2016-06-14T06:42:58.759Z,1288
2016-06-14T06:46:12.230Z,1031
2016-06-14T06:49:26.088Z,1353
2016-06-14T06:52:40.116Z,2313
2016-06-14T06:56:00.100Z,2061
2016-06-14T06:59:03.124Z,2472
2016-06-14T07:02:16.705Z,3405
2016-06-14T07:05:30.755Z,2318
2016-06-14T07:08:44.173Z,2638
2016-06-14T07:11:57.792Z,2278
2016-06-14T07:15:11.537Z,2035
2016-06-14T07:18:25.314Z,1942
2016-06-14T07:21:39.121Z,2448
2016-06-14T07:24:59.380Z,3157
2016-06-14T07:28:02.295Z,3131
2016-06-14T07:31:16.554Z,4259
2016-06-14T07:34:30.395Z,3966
2016-06-14T07:37:44.216Z,3776
2016-06-14T07:40:58.070Z,3915
2016-06-14T07:44:11.798Z,4069
2016-06-14T07:47:25.638Z,6739
2016-06-14T07:50:39.319Z,8306
2016-06-14T07:53:59.250Z,7073
2016-06-14T07:57:01.884Z,4385
2016-06-14T08:00:15.815Z,2405
2016-06-14T08:03:29.485Z,2202
2016-06-14T08:06:43.133Z,3098
2016-06-14T08:09:57.628Z,3737
2016-06-14T08:13:11.215Z,2911
2016-06-14T08:16:24.852Z,2973
2016-06-14T08:19:38.159Z,2537
2016-06-14T08:22:57.933Z,2135
2016-06-14T08:26:00.614Z,2835
2016-06-14T08:29:13.921Z,5495
2016-06-14T08:32:27.480Z,4311
2016-06-14T08:35:41.676Z,3032
2016-06-14T08:39:01.638Z,3560
2016-06-14T08:42:05.164Z,8597
2016-06-14T08:45:17.189Z,4258
2016-06-14T08:52:11.132Z,4356
2016-06-14T08:55:22.579Z,9472
2016-06-14T08:58:36.387Z,3255
2016-06-14T09:01:56.288Z,3647
2016-06-14T09:04:59.359Z,3810
2016-06-14T09:08:13.041Z,5442
2016-06-14T09:11:26.911Z,13287
2016-06-14T09:14:40.421Z,6543
2016-06-14T09:18:00.852Z,4866
2016-06-14T09:21:04.268Z,12628
2016-06-14T09:24:18.606Z,16786
2016-06-14T09:27:32.836Z,15737
2016-06-14T09:30:46.955Z,384
2016-06-14T09:34:01.308Z,17112
2016-06-14T09:37:15.864Z,17645
2016-06-14T09:40:30.688Z,11988
2016-06-14T09:43:44.135Z,9534
2016-06-14T09:46:58.802Z,15445
2016-06-14T09:50:12.154Z,384
2016-06-14T09:53:26.901Z,384
2016-06-14T09:56:41.519Z,7351
2016-06-14T10:00:02.606Z,4259
2016-06-14T10:03:06.507Z,3484
2016-06-14T10:06:21.610Z,9753
2016-06-14T10:09:36.372Z,12970
2016-06-14T10:12:56.459Z,16477
2016-06-14T10:15:58.811Z,15864
2016-06-14T10:19:12.165Z,8382
2016-06-14T10:22:24.674Z,8644
2016-06-14T10:25:39.264Z,18070
2016-06-14T10:28:59.570Z,17802
2016-06-14T10:32:03.079Z,16119
2016-06-14T10:35:17.448Z,11469
2016-06-14T10:38:31.804Z,10443
2016-06-14T10:41:45.876Z,9241
2016-06-14T10:44:59.901Z,5897
2016-06-14T10:48:13.894Z,5328
2016-06-14T10:51:27.966Z,4624
2016-06-14T10:54:41.963Z,3817
2016-06-14T10:58:01.722Z,3261
2016-06-14T11:01:05.138Z,2963
2016-06-14T11:04:19.241Z,2602
2016-06-14T11:07:33.456Z,2177
2016-06-14T11:10:53.480Z,2174
2016-06-14T11:14:02.677Z,2260
2016-06-14T11:17:06.077Z,2692
2016-06-14T11:20:20.102Z,3445
2016-06-14T11:23:34.100Z,4080
2016-06-14T11:26:46.905Z,4807
2016-06-14T11:30:00.430Z,5834
2016-06-14T11:33:14.408Z,8149
2016-06-14T11:36:28.386Z,10898
2016-06-14T11:39:42.024Z,8770
2016-06-14T11:43:02.017Z,9797
2016-06-14T11:46:05.401Z,12139
2016-06-14T11:49:19.863Z,10912
2016-06-14T11:52:34.017Z,9676
2016-06-14T11:55:54.291Z,9542
2016-06-14T11:58:57.894Z,11427
2016-06-14T12:02:12.372Z,8508
2016-06-14T12:05:26.694Z,7723
2016-06-14T12:08:40.597Z,8986
2016-06-14T12:12:00.997Z,5835
2016-06-14T12:15:04.507Z,4268
2016-06-14T12:18:18.608Z,5130
2016-06-14T12:21:32.603Z,3794
2016-06-14T12:24:46.583Z,5443
2016-06-14T12:28:00.671Z,4691
2016-06-14T12:31:14.398Z,6089
2016-06-14T12:34:28.268Z,5537
2016-06-14T12:37:42.421Z,5461
2016-06-14T12:41:01.915Z,5398
2016-06-14T12:44:04.549Z,5583
2016-06-14T12:47:18.980Z,5191
2016-06-14T12:50:33.239Z,5419
2016-06-14T12:53:53.891Z,4441
2016-06-14T12:56:57.104Z,3823
2016-06-14T13:00:10.863Z,5199
2016-06-14T13:03:25.169Z,4039
2016-06-14T13:06:39.475Z,4536
2016-06-14T13:10:00.004Z,3723
2016-06-14T13:13:03.778Z,4223
2016-06-14T13:16:18.459Z,6880
2016-06-14T13:19:33.078Z,5307
2016-06-14T13:22:53.919Z,6358
2016-06-14T13:25:57.834Z,5191
2016-06-14T13:29:12.546Z,4386
2016-06-14T13:32:27.165Z,4412
2016-06-14T13:35:41.659Z,4423
2016-06-14T13:39:02.343Z,4553
2016-06-14T13:42:06.258Z,7326
2016-06-14T13:45:20.627Z,6999
2016-06-14T13:48:35.168Z,6091
2016-06-14T13:51:55.523Z,4365
2016-06-14T13:54:59.079Z,2978
2016-06-14T13:58:13.151Z,3003
2016-06-14T14:01:27.238Z,3385
2016-06-14T14:04:41.404Z,2721
2016-06-14T14:08:01.619Z,3556
2016-06-14T14:11:05.113Z,3537
2016-06-14T14:14:19.262Z,3370
2016-06-14T14:17:33.521Z,2812
2016-06-14T14:20:54.019Z,2876
2016-06-14T14:23:57.450Z,5141
2016-06-14T14:27:11.287Z,3638
2016-06-14T14:30:25.452Z,5244
2016-06-14T14:33:39.852Z,5341
2016-06-14T14:37:00.005Z,2810
2016-06-14T14:40:03.484Z,2927
2016-06-14T14:43:17.196Z,3636
2016-06-14T14:46:31.485Z,3588
2016-06-14T14:49:45.386Z,3936
2016-06-14T14:52:59.757Z,3293
2016-06-14T14:56:13.830Z,3262
2016-06-14T14:59:27.995Z,3094
2016-06-14T15:02:42.395Z,3174
2016-06-14T15:06:02.500Z,3495
2016-06-14T15:09:05.837Z,2970
2016-06-14T15:12:20.097Z,3266
2016-06-14T15:15:34.075Z,2846
2016-06-14T15:18:54.275Z,2666
2016-06-14T15:21:57.894Z,2047
2016-06-14T15:25:12.011Z,1973
2016-06-14T15:28:26.115Z,1975
2016-06-14T15:31:39.984Z,1892
2016-06-14T15:35:00.199Z,2499
2016-06-14T15:38:03.740Z,3590
2016-06-14T15:41:17.765Z,4266
2016-06-14T15:44:31.789Z,4203
2016-06-14T15:47:46.533Z,3409
2016-06-14T15:51:00.435Z,3076
2016-06-14T15:54:14.482Z,4187
2016-06-14T15:57:28.551Z,5493
2016-06-14T16:00:43.060Z,5759
2016-06-14T16:04:02.966Z,5458
2016-06-14T16:07:06.457Z,4486
2016-06-14T16:10:20.676Z,3736
2016-06-14T16:13:34.939Z,3354
2016-06-14T16:16:54.938Z,3072
2016-06-14T16:19:58.433Z,3500
2016-06-14T16:23:12.786Z,2840
2016-06-14T16:26:27.030Z,2394
2016-06-14T16:29:41.477Z,2477
2016-06-14T16:33:01.442Z,2282
2016-06-14T16:36:05.076Z,2770
2016-06-14T16:39:19.382Z,1970
2016-06-14T16:42:33.736Z,1371
2016-06-14T16:45:54.153Z,1122
2016-06-14T16:48:57.616Z,1011
2016-06-14T16:52:12.172Z,1034
2016-06-14T16:55:26.712Z,1168
2016-06-14T16:58:41.472Z,1481
2016-06-14T17:02:09.906Z,1534
2016-06-14T17:05:05.978Z,1587
2016-06-14T17:08:20.425Z,1489
2016-06-14T17:11:34.980Z,1496
2016-06-14T17:14:55.634Z,1778
2016-06-14T17:17:59.222Z,1793
2016-06-14T17:21:13.824Z,1896
2016-06-14T17:24:27.896Z,2127
2016-06-14T17:27:42.421Z,1839
2016-06-14T17:31:02.590Z,1528
2016-06-14T17:34:05.896Z,1449
2016-06-14T17:37:20.107Z,1454
2016-06-14T17:40:34.164Z,1499
2016-06-14T17:43:54.926Z,1648
2016-06-14T17:46:58.716Z,1804
2016-06-14T17:50:13.162Z,1759
2016-06-14T17:53:27.297Z,1547
2016-06-14T17:56:41.197Z,1571
2016-06-14T18:00:01.350Z,1609
2016-06-14T18:03:04.641Z,1569
2016-06-14T18:06:18.852Z,1487
2016-06-14T18:09:33.050Z,1422
2016-06-14T18:12:47.340Z,1371
2016-06-14T18:16:01.664Z,1329
2016-06-14T18:19:16.518Z,1237
2016-06-14T18:22:30.918Z,1097
2016-06-14T18:25:45.239Z,958
2016-06-14T18:28:59.612Z,812
2016-06-14T18:32:14.041Z,705
2016-06-14T18:35:28.255Z,761
2016-06-14T18:38:42.498Z,753
2016-06-14T18:42:02.510Z,707
2016-06-14T18:45:05.879Z,645
2016-06-14T18:48:20.170Z,584
2016-06-14T18:51:34.647Z,493
2016-06-14T18:54:46.531Z,412
2016-06-14T18:58:00.778Z,349
2016-06-14T19:01:14.600Z,297
2016-06-14T19:04:28.719Z,251
2016-06-14T19:07:42.462Z,237
2016-06-14T19:11:01.319Z,221
2016-06-14T19:14:04.561Z,197
2016-06-14T19:17:15.821Z,180
2016-06-14T19:20:29.346Z,156
2016-06-14T19:23:43.184Z,129
2016-06-14T19:26:59.586Z,104
2016-06-14T19:30:02.923Z,84
2016-06-14T19:33:19.120Z,69
2016-06-14T19:36:30.614Z,56
2016-06-14T19:39:44.716Z,18
2016-06-14T19:42:58.385Z,34
2016-06-14T19:46:12.519Z,24
2016-06-14T19:49:26.810Z,16
2016-06-14T19:52:41.226Z,11
2016-06-14T19:55:58.004Z,10
2016-06-14T19:59:01.403Z,7
2016-06-14T20:02:15.084Z,6
2016-06-14T20:05:28.952Z,5
2016-06-14T20:08:43.462Z,3
2016-06-14T20:12:03.271Z,2
2016-06-14T20:15:06.468Z,1
2016-06-14T20:18:20.555Z,1
2016-06-14T20:21:34.611Z,0
2016-06-14T20:24:55.636Z,0
2016-06-14T20:27:58.273Z,0
2016-06-14T20:31:12.376Z,0
2016-06-14T20:34:24.479Z,0
2016-06-14T20:37:38.301Z,0
2016-06-14T20:40:58.626Z,0
2016-06-14T20:44:02.229Z,0
2016-06-14T20:47:16.269Z,0
2016-06-14T20:50:30.497Z,0
2016-06-14T20:53:44.819Z,0
2016-06-14T20:56:59.159Z,0
2016-06-14T21:00:12.746Z,0
2016-06-14T21:03:25.288Z,0
2016-06-14T21:06:37.562Z,0
2016-06-14T21:09:55.462Z,0
2016-06-14T21:12:58.661Z,0
2016-06-14T21:16:12.562Z,0
2016-06-14T21:19:23.727Z,0
2016-06-14T21:22:38.064Z,0
2016-06-14T21:25:57.981Z,0
2016-06-14T21:29:04.648Z,0
2016-06-14T21:32:11.970Z,0
2016-06-14T21:35:25.729Z,0
2016-06-14T21:38:39.568Z,0
2016-06-14T21:41:59.564Z,0
2016-06-14T21:45:03.026Z,0
2016-06-14T21:48:15.738Z,0
2016-06-14T21:51:26.575Z,0
2016-06-14T21:54:40.945Z,0
2016-06-14T21:58:01.066Z,0
2016-06-14T22:01:04.730Z,0
2016-06-14T22:04:18.601Z,0
2016-06-14T22:07:32.671Z,0
2016-06-14T22:10:46.258Z,0
2016-06-14T22:13:58.956Z,0
2016-06-14T22:17:12.608Z,0
2016-06-14T22:20:26.821Z,0
2016-06-14T22:23:41.033Z,0
2016-06-14T22:27:01.218Z,0
2016-06-14T22:30:04.773Z,0
2016-06-14T22:33:18.361Z,0
2016-06-14T22:36:32.261Z,0
2016-06-14T22:39:46.395Z,0
2016-06-14T22:46:47.385Z,0
2016-06-14T22:49:59.926Z,0
2016-06-14T22:53:01.423Z,0
2016-06-14T22:56:15.150Z,0
2016-06-14T22:59:29.284Z,0
2016-06-14T23:02:42.904Z,0
2016-06-14T23:06:00.427Z,0
2016-06-14T23:09:03.612Z,0
2016-06-14T23:12:17.418Z,0
2016-06-14T23:15:30.646Z,0
2016-06-14T23:18:44.624Z,0
2016-06-14T23:21:58.384Z,0
2016-06-14T23:25:12.505Z,0
2016-06-14T23:28:25.843Z,0
2016-06-14T23:31:36.180Z,0
2016-06-14T23:34:56.002Z,0
2016-06-14T23:37:59.464Z,0
2016-06-14T23:41:13.835Z,0
2016-06-14T23:44:26.485Z,0
2016-06-14T23:47:40.713Z,0
2016-06-14T23:51:00.926Z,0
2016-06-14T23:54:04.328Z,0
2016-06-14T23:57:18.525Z,0
